Terminal Aerodrome Forecast
Issued by NWS Sterling, VA

Home | Current Version | Previous Version | Text Only | Print | Product List | Glossary On
Versions: 1 2 3 4 5 6 7 8 9 10 11 12 13 14 15 16 17 18 19 20
847
FTUS41 KLWX 182327
TAFMRB
TAF
KMRB 182327Z 1900/1924 12004KT P6SM FEW250
     FM191000 16006KT P6SM BKN060
     FM191500 16008KT 4SM BR BKN035=

USA.gov is the U.S. government's official web portal to all federal, state and local government web resources and services.